Time;durP1;ratioP1;P1;durP2;ratioP2;P2;SDS_P1;SDS_P2;PMS_P1;PMS_P2;Temp;Humidity;BMP_temperature;BMP_pressure;BME280_temperature;BME280_humidity;BME280_pressure;Samples;Min_cycle;Max_cycle;Signal;HPM_P1;HPM_P2
2022/06/05 00:01:38;;;;;;;5.35;3.88;;;;;;;21.87;63.18;99352.66;5126218;28;20060;-71
2022/06/05 00:04:19;;;;;;;4.97;4.13;;;;;;;21.78;63.57;99357.09;5126268;28;20112;-71
2022/06/05 00:06:55;;;;;;;7.93;4.68;;;;;;;21.69;63.52;99352.63;5126033;28;20055;-70
2022/06/05 00:09:34;;;;;;;5.68;4.18;;;;;;;21.62;63.70;99346.16;5125765;28;20111;-71
2022/06/05 00:12:07;;;;;;;4.80;4.25;;;;;;;21.78;63.30;99357.09;5125800;28;20249;-71
2022/06/05 00:14:37;;;;;;;5.93;4.55;;;;;;;21.77;63.07;99355.41;5125884;28;20096;-71
2022/06/05 00:17:09;;;;;;;5.25;4.75;;;;;;;21.76;63.00;99364.50;5125619;28;20051;-71
2022/06/05 00:19:37;;;;;;;7.30;5.25;;;;;;;21.78;63.05;99360.63;5125782;28;20063;-71
2022/06/05 00:22:05;;;;;;;5.38;4.63;;;;;;;21.81;62.95;99370.31;5126014;28;20112;-71
2022/06/05 00:24:33;;;;;;;7.28;5.47;;;;;;;21.82;62.94;99379.25;5125687;28;20108;-71
2022/06/05 00:27:07;;;;;;;6.80;5.57;;;;;;;21.84;63.08;99378.09;5125632;28;20052;-71
2022/06/05 00:29:59;;;;;;;6.80;5.72;;;;;;;21.83;63.48;99367.44;5125720;28;20055;-71
2022/06/05 00:32:35;;;;;;;7.70;6.18;;;;;;;21.81;63.07;99362.22;5125954;28;20316;-71
2022/06/05 00:35:02;;;;;;;6.72;5.45;;;;;;;21.80;62.83;99376.69;5125603;28;20055;-71
2022/06/05 00:37:39;;;;;;;7.80;5.70;;;;;;;21.82;63.29;99373.84;5125511;28;20059;-71
2022/06/05 00:40:39;;;;;;;8.95;5.70;;;;;;;21.81;63.74;99381.09;5125888;28;20060;-71
2022/06/05 00:43:11;;;;;;;6.50;5.88;;;;;;;21.74;63.18;99374.59;5125465;28;20120;-71
2022/06/05 00:45:39;;;;;;;7.47;6.68;;;;;;;21.77;63.02;99364.34;5125262;28;20100;-71
2022/06/05 00:48:09;;;;;;;7.05;6.43;;;;;;;21.74;63.24;99351.16;5125723;28;20052;-71
2022/06/05 00:50:37;;;;;;;7.82;5.78;;;;;;;21.71;63.10;99342.53;5125755;28;20063;-71
2022/06/05 00:53:06;;;;;;;7.30;6.57;;;;;;;21.70;63.04;99346.25;5125391;28;20051;-71
2022/06/05 00:55:39;;;;;;;6.53;5.93;;;;;;;21.69;63.23;99349.94;5125643;28;20119;-71
2022/06/05 00:58:06;;;;;;;7.63;6.32;;;;;;;21.72;63.12;99345.06;5125633;28;20055;-71
2022/06/05 01:00:42;;;;;;;8.30;7.35;;;;;;;21.70;63.35;99351.63;5125399;28;20100;-71
2022/06/05 01:03:12;;;;;;;7.13;6.43;;;;;;;21.69;62.94;99364.28;5125665;28;20314;-71
2022/06/05 01:05:40;;;;;;;7.82;6.63;;;;;;;21.71;62.88;99356.88;5125520;28;20063;-71
2022/06/05 01:08:09;;;;;;;7.38;6.60;;;;;;;21.74;62.84;99340.38;5125080;28;20109;-71
2022/06/05 01:10:43;;;;;;;9.25;6.60;;;;;;;21.71;62.91;99332.59;5125506;28;20121;-71
2022/06/05 01:13:23;;;;;;;8.82;7.47;;;;;;;21.67;63.32;99333.06;5125154;28;20052;-71
2022/06/05 01:15:57;;;;;;;8.10;7.30;;;;;;;21.55;63.40;99343.25;5125245;28;20064;-71
2022/06/05 01:18:33;;;;;;;10.80;7.93;;;;;;;21.58;63.42;99339.38;5125458;28;20097;-71
2022/06/05 01:21:17;;;;;;;9.27;7.15;;;;;;;21.58;63.62;99324.06;5128494;28;20067;-71
2022/06/05 01:23:56;;;;;;;8.15;7.35;;;;;;;21.43;63.24;99317.50;5128054;28;20055;-71
2022/06/05 01:26:31;;;;;;;7.97;7.18;;;;;;;21.59;63.17;99327.59;5128787;27;20097;-71
2022/06/05 01:29:05;;;;;;;7.30;6.65;;;;;;;21.60;63.31;99330.16;5128851;28;20051;-71
2022/06/05 01:31:38;;;;;;;7.68;6.75;;;;;;;21.38;62.97;99293.72;5128903;28;20046;-71
2022/06/05 01:34:16;;;;;;;10.10;7.25;;;;;;;21.59;63.33;99343.78;5129022;28;20292;-71
2022/06/05 01:36:48;;;;;;;7.55;6.78;;;;;;;21.59;62.90;99333.00;5128860;28;20233;-71
2022/06/05 01:39:20;;;;;;;8.63;7.55;;;;;;;21.59;62.97;99341.09;5128676;28;20096;-71
2022/06/05 01:41:53;;;;;;;8.23;7.43;;;;;;;21.58;62.88;99334.00;5128769;28;20063;-71
2022/06/05 01:44:27;;;;;;;9.37;8.57;;;;;;;21.54;62.90;99336.16;5128678;28;20056;-71
2022/06/05 01:46:58;;;;;;;9.65;8.30;;;;;;;21.53;62.81;99331.75;5128726;27;20097;-71
2022/06/05 01:49:31;;;;;;;9.30;7.75;;;;;;;21.39;62.84;99333.16;5128671;28;20047;-71
2022/06/05 01:52:03;;;;;;;8.52;7.72;;;;;;;21.52;62.86;99330.06;5128373;27;20200;-71
2022/06/05 01:54:36;;;;;;;10.10;8.02;;;;;;;21.43;62.75;99331.00;5128087;28;20051;-71
2022/06/05 01:57:09;;;;;;;7.78;7.07;;;;;;;21.00;62.85;99269.72;5128216;28;20051;-71
2022/06/05 01:59:42;;;;;;;9.15;8.25;;;;;;;21.40;63.11;99321.38;5128067;28;20085;-71
2022/06/05 02:02:11;;;;;;;7.82;7.03;;;;;;;;;;5128420;28;20055;-71
2022/06/05 02:04:39;;;;;;;7.88;7.07;;;;;;;;;;5128272;27;20043;-71
2022/06/05 02:07:13;;;;;;;7.55;6.85;;;;;;;21.39;62.74;99324.22;5128205;28;20051;-71
2022/06/05 02:09:44;;;;;;;7.88;7.10;;;;;;;21.32;62.84;99320.44;5128322;28;20108;-71
2022/06/05 02:12:12;;;;;;;8.20;6.72;;;;;;;21.30;63.00;99320.59;5127837;28;20181;-71
2022/06/05 02:14:42;;;;;;;7.82;7.03;;;;;;;21.32;63.02;99309.66;5128173;28;20055;-71
2022/06/05 02:17:10;;;;;;;8.85;7.70;;;;;;;21.28;62.92;99313.66;5127967;28;20097;-71
2022/06/05 02:19:38;;;;;;;7.00;6.25;;;;;;;21.29;62.70;99307.28;5127986;28;20056;-71
2022/06/05 02:22:11;;;;;;;7.53;6.82;;;;;;;21.25;63.08;99312.13;5127705;28;20059;-71
2022/06/05 02:24:38;;;;;;;8.37;7.60;;;;;;;21.26;62.87;99316.50;5127945;28;20052;-71
2022/06/05 02:27:07;;;;;;;8.75;7.85;;;;;;;21.28;62.78;99301.03;5127910;28;20504;-71
2022/06/05 02:29:37;;;;;;;8.30;7.50;;;;;;;21.23;63.02;99314.13;5127742;28;20249;-70
2022/06/05 02:32:32;;;;;;;8.30;7.50;;;;;;;21.17;63.47;99319.28;5127608;28;20047;-71
2022/06/05 02:35:10;;;;;;;7.63;6.47;;;;;;;21.11;63.54;99318.03;5124840;28;20105;-71
2022/06/05 02:37:51;;;;;;;8.10;7.32;;;;;;;21.12;63.31;99315.19;5127759;28;20081;-71
2022/06/05 02:40:26;;;;;;;7.50;6.78;;;;;;;21.11;63.48;99323.44;5127701;28;20055;-71
2022/06/05 02:43:00;;;;;;;8.35;7.53;;;;;;;21.09;63.33;99323.59;5127383;28;20097;-71
2022/06/05 02:45:37;;;;;;;8.15;7.35;;;;;;;21.07;63.49;99327.44;5127304;28;20112;-71
2022/06/05 02:48:09;;;;;;;8.77;7.85;;;;;;;21.05;63.34;99324.88;5127548;27;20060;-71
2022/06/05 02:50:41;;;;;;;9.38;8.38;;;;;;;21.05;63.27;99324.88;5127600;28;20295;-71
2022/06/05 02:53:10;;;;;;;9.65;7.97;;;;;;;21.03;63.15;99326.88;5127488;28;20055;-71
2022/06/05 02:55:37;;;;;;;8.73;7.88;;;;;;;21.02;63.06;99329.69;5127437;28;20104;-71
2022/06/05 02:58:05;;;;;;;8.68;7.90;;;;;;;20.99;63.06;99327.31;5127033;27;20060;-71
2022/06/05 03:00:36;;;;;;;8.30;7.50;;;;;;;20.96;63.40;99327.63;5127415;28;20055;-71
2022/06/05 03:05:48;;;;;;;9.98;8.95;;;;;;;20.97;63.20;99323.91;5127493;28;20092;-71
2022/06/05 03:08:18;;;;;;;10.02;9.07;;;;;;;20.95;63.12;99326.75;5127144;28;20112;-71
2022/06/05 03:10:46;;;;;;;9.77;8.88;;;;;;;20.95;63.13;99326.75;5127069;28;20101;-71
2022/06/05 03:13:14;;;;;;;9.45;8.43;;;;;;;20.95;63.22;99324.06;5126653;28;20254;-71
2022/06/05 03:15:43;;;;;;;12.77;11.57;;;;;;;20.93;63.05;99342.22;5126714;28;20047;-70
2022/06/05 03:18:13;;;;;;;13.32;11.95;;;;;;;20.95;63.03;99334.84;5127205;28;20056;-70
2022/06/05 03:20:40;;;;;;;14.73;13.30;;;;;;;20.96;63.16;99350.00;5126817;28;20055;-71
2022/06/05 03:23:09;;;;;;;14.43;11.73;;;;;;;20.99;62.80;99351.56;5126867;28;20051;-71
2022/06/05 03:25:40;;;;;;;11.18;10.18;;;;;;;20.98;62.95;99360.63;5126833;28;20120;-71
2022/06/05 03:28:07;;;;;;;12.85;11.70;;;;;;;20.96;62.95;99358.09;5126383;28;20112;-71
2022/06/05 03:30:37;;;;;;;13.88;12.48;;;;;;;20.94;63.06;99364.63;5126757;28;20047;-71
2022/06/05 03:33:06;;;;;;;14.25;12.43;;;;;;;20.90;62.65;99368.63;5126597;28;20051;-71
2022/06/05 03:35:36;;;;;;;25.42;22.90;;;;;;;20.83;62.79;99368.38;5126702;28;20055;-71
2022/06/05 03:38:05;;;;;;;22.13;19.83;;;;;;;20.75;63.43;99366.44;5126329;28;20063;-71
2022/06/05 03:40:33;;;;;;;17.67;15.95;;;;;;;19.74;63.31;99202.19;5126533;28;20113;-71
2022/06/05 03:43:01;;;;;;;14.60;13.20;;;;;;;20.76;63.09;99365.44;5125717;28;20080;-71
2022/06/05 03:45:28;;;;;;;14.77;13.25;;;;;;;20.34;63.41;99316.59;5126168;28;20059;-71
2022/06/05 03:47:55;;;;;;;18.63;16.83;;;;;;;20.72;63.21;99374.81;5126042;28;20051;-71
2022/06/05 03:50:24;;;;;;;15.80;14.30;;;;;;;20.75;63.30;99371.81;5126448;28;20101;-71
2022/06/05 13:10:00;;;;;;;5.85;5.25;;;;;;;26.55;42.53;98959.25;5144496;27;20654;-69
2022/06/05 13:12:31;;;;;;;6.20;5.47;;;;;;;26.64;43.37;98946.41;5122813;28;20063;-69
2022/06/05 13:15:05;;;;;;;5.55;5.05;;;;;;;26.71;42.46;98943.72;5122711;28;20056;-71
2022/06/05 13:17:43;;;;;;;6.53;5.93;;;;;;;26.75;40.94;98940.41;5122762;28;20067;-70
2022/06/05 13:20:21;;;;;;;4.97;4.45;;;;;;;26.86;40.66;98945.31;5123049;28;20059;-70
2022/06/05 13:22:54;;;;;;;4.82;4.28;;;;;;;26.88;41.64;98947.81;5122714;28;20188;-71
2022/06/05 13:25:30;;;;;;;6.25;4.78;;;;;;;26.97;40.47;98932.19;5122620;28;20153;-71
2022/06/05 13:28:08;;;;;;;4.95;4.45;;;;;;;27.06;39.60;98937.25;5122765;28;20060;-70
2022/06/05 13:30:50;;;;;;;7.13;4.93;;;;;;;27.02;39.79;98914.22;5122814;28;20055;-71
2022/06/05 13:33:25;;;;;;;4.43;4.03;;;;;;;27.18;41.24;98929.38;5122670;28;20055;-70
2022/06/05 13:35:59;;;;;;;7.38;4.00;;;;;;;27.16;40.25;98918.69;5122720;28;20055;-71
2022/06/05 13:38:29;;;;;;;4.63;3.67;;;;;;;27.21;41.24;98928.13;5122519;28;20063;-71
2022/06/05 13:41:03;;;;;;;5.63;4.18;;;;;;;26.92;40.84;98864.81;5122670;28;20052;-71
2022/06/05 13:43:34;;;;;;;6.57;4.40;;;;;;;27.30;41.47;98914.19;5122943;28;20215;-70
2022/06/05 13:46:14;;;;;;;5.05;4.03;;;;;;;27.32;38.42;98905.84;5122338;28;20059;-71
2022/06/05 13:48:48;;;;;;;6.20;3.55;;;;;;;27.31;40.05;98890.53;5122267;28;20059;-70
2022/06/05 13:51:24;;;;;;;6.60;4.45;;;;;;;27.34;39.34;98888.25;5122185;28;20051;-71
2022/06/05 13:54:00;;;;;;;4.25;3.58;;;;;;;27.35;39.62;98892.66;5122115;28;20219;-70
2022/06/05 13:56:36;;;;;;;4.28;3.88;;;;;;;27.28;39.84;98890.94;5122007;28;20062;-71
2022/06/05 13:59:10;;;;;;;5.00;4.20;;;;;;;27.16;40.22;98901.53;5122049;28;20052;-71
2022/06/05 14:03:50;;;;;;;4.72;3.92;;;;;;;26.81;40.51;98871.66;5144703;27;20493;-71
2022/06/05 14:06:24;;;;;;;4.00;3.60;;;;;;;26.97;42.20;98894.97;5143665;27;20058;-71
2022/06/05 14:08:54;;;;;;;;;;;;;;;26.85;40.14;98905.56;5144369;27;20058;-73
2022/06/05 14:12:24;;;;;;;4.78;4.30;;;;;;;26.78;41.80;98904.69;5144764;27;20494;-71
2022/06/05 14:14:52;;;;;;;4.15;3.70;;;;;;;26.64;42.43;98891.19;5143443;27;20055;-70
2022/06/05 14:17:25;;;;;;;5.53;4.45;;;;;;;26.70;41.25;98895.84;5143786;27;20058;-71
2022/06/05 14:19:55;;;;;;;;;;;;;;;26.65;40.64;98901.88;5144171;27;20047;-71
2022/06/05 14:22:24;;;;;;;5.88;3.75;;;;;;;26.65;42.53;98901.03;5143308;27;20171;-71
2022/06/05 14:24:54;;;;;;;4.85;4.35;;;;;;;26.64;42.88;98886.59;5143157;27;20055;-71
2022/06/05 14:27:34;;;;;;;4.95;4.07;;;;;;;26.66;41.96;98891.84;5143733;27;20051;-70
2022/06/05 14:30:17;;;;;;;5.35;4.63;;;;;;;26.61;42.29;98875.28;5143397;27;20223;-71
2022/06/05 14:32:46;;;;;;;6.07;4.55;;;;;;;26.70;42.89;98888.53;5143225;28;20055;-70
2022/06/05 14:35:23;;;;;;;4.80;4.13;;;;;;;26.67;42.23;98872.63;5143250;27;20055;-71
2022/06/05 14:38:00;;;;;;;5.05;4.40;;;;;;;26.67;42.36;98867.19;5143489;27;20055;-70
2022/06/05 14:40:34;;;;;;;5.10;4.60;;;;;;;26.71;43.34;98854.88;5143463;28;20059;-71
2022/06/05 14:43:09;;;;;;;5.78;4.40;;;;;;;26.74;42.40;98848.19;5142991;27;20055;-71
2022/06/05 14:45:42;;;;;;;4.78;4.20;;;;;;;26.81;42.80;98843.63;5143032;27;20062;-71
2022/06/05 14:48:16;;;;;;;4.85;4.10;;;;;;;26.80;43.15;98831.91;5143015;27;20051;-71
2022/06/05 14:50:47;;;;;;;8.23;5.78;;;;;;;26.89;43.19;98819.00;5142835;27;20307;-71
2022/06/05 14:53:25;;;;;;;5.63;5.10;;;;;;;26.93;42.21;98808.56;5143062;27;20051;-71
2022/06/05 14:58:54;;;;;;;5.82;5.22;;;;;;;27.08;42.24;98817.41;5142861;28;20062;-70
2022/06/05 15:01:30;;;;;;;5.25;4.75;;;;;;;25.07;42.65;98475.38;5143072;27;20047;-71
2022/06/05 15:04:07;;;;;;;5.93;5.10;;;;;;;26.73;42.22;98737.78;5142655;27;20207;-70
2022/06/05 15:06:40;;;;;;;5.40;4.90;;;;;;;26.85;42.68;98764.19;5142863;27;20051;-71
2022/06/05 15:09:14;;;;;;;5.40;4.78;;;;;;;27.19;42.34;98838.56;5143001;27;20051;-71
2022/06/05 15:11:46;;;;;;;5.63;5.13;;;;;;;27.09;43.01;98835.41;5142227;27;20051;-71
2022/06/05 15:14:21;;;;;;;6.80;5.80;;;;;;;26.92;42.96;98836.78;5141689;28;20227;-71
2022/06/05 15:16:53;;;;;;;7.07;4.95;;;;;;;26.81;43.08;98832.75;5142660;27;20055;-71
2022/06/05 15:19:25;;;;;;;5.22;4.68;;;;;;;26.74;43.17;98832.72;5142554;27;20192;-71
2022/06/05 15:22:06;;;;;;;7.15;5.32;;;;;;;26.58;42.99;98816.72;5139294;27;20307;-72
2022/06/05 15:24:37;;;;;;;5.45;4.93;;;;;;;26.65;43.98;98824.94;5128730;28;20097;-71
2022/06/05 15:27:15;;;;;;;4.88;4.45;;;;;;;26.64;43.30;98825.97;5128539;28;20056;-71
2022/06/05 15:29:51;;;;;;;5.72;5.15;;;;;;;26.54;43.15;98810.00;5128852;28;20051;-71
2022/06/05 15:32:28;;;;;;;5.70;4.65;;;;;;;26.59;43.45;98814.84;5128631;28;20229;-71
2022/06/05 15:35:04;;;;;;;5.88;4.75;;;;;;;26.58;43.95;98815.88;5128496;28;20307;-71
2022/06/05 15:37:45;;;;;;;6.55;4.72;;;;;;;26.57;43.45;98819.63;5128501;28;20055;-71
2022/06/05 15:40:23;;;;;;;5.45;4.38;;;;;;;26.53;43.17;98817.31;5128201;28;20086;-72
2022/06/05 15:43:04;;;;;;;5.43;4.60;;;;;;;26.46;43.00;98813.72;5127988;28;20105;-71
2022/06/05 15:45:47;;;;;;;5.85;5.05;;;;;;;26.40;42.96;98817.22;5128461;28;20117;-71
2022/06/05 15:48:35;;;;;;;5.30;4.80;;;;;;;26.34;43.11;98809.88;5128665;28;20063;-71
2022/06/05 15:51:18;;;;;;;5.20;4.47;;;;;;;26.30;43.79;98811.31;5127517;27;20104;-71
2022/06/05 15:54:11;;;;;;;5.53;5.00;;;;;;;26.34;43.23;98800.88;5127259;28;20263;-71
2022/06/05 15:56:49;;;;;;;5.30;4.40;;;;;;;26.08;43.37;98764.34;5128294;28;20116;-70
2022/06/05 15:59:30;;;;;;;6.63;4.07;;;;;;;26.32;43.21;98803.78;5128069;28;20052;-71
2022/06/05 16:02:09;;;;;;;10.77;4.38;;;;;;;26.29;43.02;98797.91;5127779;28;20047;-71
2022/06/05 16:04:39;;;;;;;4.97;4.15;;;;;;;26.28;43.33;98791.66;5127971;27;20056;-72
2022/06/05 16:07:11;;;;;;;6.07;4.05;;;;;;;26.21;43.15;98779.91;5127672;28;20056;-72
2022/06/05 16:09:44;;;;;;;4.63;4.00;;;;;;;25.67;43.10;98684.66;5127909;28;20368;-72
2022/06/05 16:12:19;;;;;;;8.23;4.57;;;;;;;26.22;43.25;98782.41;5127422;28;20048;-72
2022/06/05 16:14:58;;;;;;;4.90;4.40;;;;;;;26.23;43.22;98775.94;5127616;28;20124;-72
2022/06/05 16:17:42;;;;;;;4.78;3.85;;;;;;;26.23;43.09;98780.53;5127411;27;20116;-72
2022/06/05 16:20:19;;;;;;;;;;;;;;;26.16;43.38;98785.09;5127870;28;20055;-72
2022/06/05 16:22:54;;;;;;;4.93;4.38;;;;;;;26.10;43.66;98781.28;5127396;28;19964;-71
2022/06/05 16:25:27;;;;;;;4.25;3.70;;;;;;;26.10;43.52;98785.88;5127466;28;20056;-72
2022/06/05 16:27:59;;;;;;;5.93;4.70;;;;;;;26.09;43.71;98785.03;5127647;28;20376;-71
2022/06/05 16:30:33;;;;;;;5.80;4.93;;;;;;;26.07;43.18;98789.00;5127412;28;20457;-72
2022/06/05 16:33:05;;;;;;;6.95;4.65;;;;;;;26.03;43.35;98771.41;5127079;28;20368;-72
2022/06/05 16:38:49;;;;;;;5.45;4.53;;;;;;;25.89;43.44;98781.31;5127376;28;20291;-72
2022/06/05 16:41:17;;;;;;;4.47;3.90;;;;;;;25.85;44.06;98780.84;5127377;28;20250;-71
2022/06/05 16:43:56;;;;;;;4.60;4.10;;;;;;;25.89;43.84;98757.72;5127063;28;20104;-72
2022/06/05 16:46:34;;;;;;;6.18;4.20;;;;;;;25.90;44.14;98748.53;5127161;28;20052;-72
2022/06/05 16:49:07;;;;;;;5.38;4.38;;;;;;;25.90;44.65;98751.25;5127657;28;20043;-72
2022/06/05 16:51:41;;;;;;;6.53;4.65;;;;;;;25.92;44.57;98760.03;5127334;28;20052;-72
2022/06/05 16:54:32;;;;;;;7.32;5.18;;;;;;;25.79;44.44;98729.22;5126873;28;20051;-72
2022/06/05 16:57:20;;;;;;;5.50;4.75;;;;;;;25.94;45.32;98753.56;5126928;27;20100;-72
2022/06/05 17:00:35;;;;;;;5.28;4.55;;;;;;;25.94;45.26;98757.13;5127051;28;20100;-72
2022/06/05 17:03:26;;;;;;;6.32;4.85;;;;;;;25.82;45.58;98724.25;5064681;28;20057;-72
2022/06/05 17:06:33;;;;;;;5.13;4.63;;;;;;;25.93;46.14;98747.28;5122195;28;20062;-71
2022/06/05 17:09:05;;;;;;;5.68;5.03;;;;;;;25.91;45.83;98752.91;5126194;28;20062;-72
2022/06/05 17:11:34;;;;;;;8.20;5.88;;;;;;;25.90;45.99;98753.97;5125211;28;20047;-69
2022/06/05 17:14:08;;;;;;;5.70;5.15;;;;;;;25.88;46.04;98739.75;5126555;28;20045;-69
2022/06/05 17:16:43;;;;;;;6.43;5.82;;;;;;;25.88;46.58;98737.03;5126216;28;20063;-69
2022/06/05 17:19:39;;;;;;;6.63;5.13;;;;;;;25.89;46.71;98725.13;5126496;28;20296;-69
2022/06/05 17:22:17;;;;;;;6.90;5.65;;;;;;;25.87;46.98;98721.78;5079866;28;20043;-69
2022/06/05 17:25:12;;;;;;;6.40;5.63;;;;;;;25.85;47.07;98713.00;5126449;28;20081;-69
2022/06/05 17:27:46;;;;;;;7.30;5.50;;;;;;;25.76;47.88;98718.75;5126034;28;20047;-69
2022/06/05 17:30:37;;;;;;;6.50;5.63;;;;;;;25.77;47.93;98715.84;5126339;28;20101;-69
2022/06/05 17:33:18;;;;;;;6.30;5.70;;;;;;;25.76;48.05;98714.19;5125964;28;20051;-68
2022/06/05 17:36:00;;;;;;;7.15;5.50;;;;;;;25.75;48.01;98714.38;5126213;28;20156;-69
2022/06/05 17:39:10;;;;;;;8.60;6.15;;;;;;;25.08;48.52;98612.59;5126163;28;20100;-68
2022/06/05 17:41:48;;;;;;;6.68;5.60;;;;;;;25.73;48.80;98722.72;5043605;28;20099;-69
2022/06/05 17:44:35;;;;;;;6.88;5.78;;;;;;;24.76;48.88;98538.06;5043835;28;20325;-69
2022/06/05 17:47:14;;;;;;;6.63;6.03;;;;;;;25.72;49.47;98706.63;5102689;28;20060;-69
2022/06/05 17:49:52;;;;;;;8.70;7.45;;;;;;;25.66;49.52;98704.69;5126063;28;20214;-69
2022/06/05 17:52:23;;;;;;;8.00;6.20;;;;;;;25.66;49.08;98710.13;5126004;28;20096;-69
2022/06/05 17:54:55;;;;;;;7.38;6.68;;;;;;;25.64;50.12;98721.19;5125908;28;20100;-70
2022/06/05 17:57:25;;;;;;;6.68;6.07;;;;;;;25.63;49.23;98727.63;5125961;28;20290;-70
2022/06/05 18:00:16;;;;;;;10.82;7.63;;;;;;;25.55;51.34;98734.03;5125749;28;20175;-70
2022/06/05 18:02:52;;;;;;;8.02;7.28;;;;;;;24.94;51.85;98660.41;5125679;28;20059;-69
2022/06/05 18:05:26;;;;;;;8.38;7.40;;;;;;;25.38;51.51;98740.78;5125671;28;20315;-70
2022/06/05 18:07:59;;;;;;;9.63;7.60;;;;;;;25.37;51.98;98741.81;5126030;28;20056;-69
2022/06/05 18:10:30;;;;;;;8.30;7.60;;;;;;;25.38;52.02;98731.78;5125526;28;20063;-70
2022/06/05 18:13:01;;;;;;;8.32;7.35;;;;;;;25.33;51.54;98724.25;5125596;28;20180;-70
2022/06/05 18:15:31;;;;;;;7.55;6.85;;;;;;;25.32;51.83;98727.13;5125363;28;20253;-70
2022/06/05 18:18:02;;;;;;;7.50;6.80;;;;;;;25.21;52.47;98731.19;5125390;28;20368;-69
2022/06/05 18:20:34;;;;;;;7.93;7.22;;;;;;;25.16;53.22;98745.31;5125371;28;20055;-69
2022/06/05 18:23:03;;;;;;;10.40;8.23;;;;;;;25.15;52.64;98759.91;5125667;28;20249;-69
2022/06/05 18:25:51;;;;;;;7.55;6.88;;;;;;;25.18;54.24;98769.53;5125208;28;20047;-70
2022/06/05 18:28:26;;;;;;;8.52;6.78;;;;;;;25.12;54.21;98775.72;5125634;28;20055;-70
2022/06/05 18:31:01;;;;;;;7.90;7.18;;;;;;;25.08;53.77;98777.97;5125457;28;20055;-69
2022/06/05 18:33:44;;;;;;;7.50;6.70;;;;;;;25.08;54.53;98774.41;5125262;28;20044;-70
2022/06/05 18:39:07;;;;;;;7.47;6.78;;;;;;;25.06;54.72;98798.16;5125506;28;20088;-69
2022/06/05 18:41:38;;;;;;;7.45;6.75;;;;;;;25.08;54.15;98806.94;5125119;28;20063;-69
2022/06/05 18:44:06;;;;;;;7.10;6.38;;;;;;;25.03;53.82;98807.53;5125072;28;20268;-69
2022/06/05 18:46:33;;;;;;;6.80;6.10;;;;;;;25.02;54.19;98805.00;5125096;28;20096;-69
2022/06/05 18:49:00;;;;;;;7.35;6.60;;;;;;;24.88;54.17;98788.53;5125426;28;20344;-69
2022/06/05 18:51:31;;;;;;;6.75;5.63;;;;;;;24.93;55.42;98802.38;5125297;28;20276;-70
2022/06/05 18:54:01;;;;;;;6.82;5.72;;;;;;;24.89;54.66;98808.34;5126026;28;20112;-70
2022/06/05 18:56:35;;;;;;;7.38;6.32;;;;;;;24.88;54.71;98802.09;5125403;28;20241;-69
2022/06/05 18:59:21;;;;;;;7.05;6.15;;;;;;;24.86;55.07;98808.75;5128680;28;20047;-70
2022/06/05 19:01:50;;;;;;;7.03;5.95;;;;;;;24.81;54.75;98811.16;5129229;28;20356;-70
2022/06/05 19:04:17;;;;;;;5.93;5.32;;;;;;;24.75;54.87;98820.06;5128753;28;20060;-70
2022/06/05 19:07:00;;;;;;;8.43;6.38;;;;;;;24.73;55.12;98830.25;5128682;27;20116;-70
2022/06/05 19:09:31;;;;;;;8.80;5.82;;;;;;;24.51;54.61;98797.63;5128978;28;20059;-69
2022/06/05 19:12:03;;;;;;;7.18;5.88;;;;;;;24.66;55.01;98832.03;5128573;28;20051;-69
2022/06/05 19:14:38;;;;;;;6.22;5.28;;;;;;;24.54;55.20;98823.47;5128722;28;20044;-70
2022/06/05 19:17:10;;;;;;;7.50;5.97;;;;;;;24.47;54.78;98830.69;5128375;28;20055;-69
2022/06/05 19:19:42;;;;;;;5.93;5.32;;;;;;;24.44;55.02;98844.59;5128624;28;20111;-70
2022/06/05 19:22:16;;;;;;;6.72;6.03;;;;;;;23.56;54.73;98704.50;5128944;28;20261;-70
2022/06/05 19:24:47;;;;;;;7.38;6.68;;;;;;;24.39;54.62;98844.31;5128684;28;20072;-69
2022/06/05 19:27:17;;;;;;;6.60;5.97;;;;;;;24.35;54.93;98845.69;5128653;28;20051;-69
2022/06/05 19:29:48;;;;;;;14.32;6.20;;;;;;;24.17;54.86;98825.22;5128362;28;20063;-69
2022/06/05 19:32:20;;;;;;;6.50;5.90;;;;;;;24.31;54.60;98850.66;5128776;28;20079;-69
2022/06/05 19:34:51;;;;;;;9.10;6.57;;;;;;;24.33;54.86;98856.72;5128669;28;20063;-69
2022/06/05 19:40:18;;;;;;;9.63;6.47;;;;;;;24.34;54.58;98850.28;5128524;28;20077;-70
2022/06/05 19:42:48;;;;;;;7.00;6.03;;;;;;;24.35;54.51;98857.38;5128051;28;20048;-69
2022/06/05 19:45:36;;;;;;;6.80;6.10;;;;;;;24.36;55.17;98859.06;5128377;28;20051;-69
2022/06/05 19:48:14;;;;;;;8.15;6.07;;;;;;;24.32;55.01;98871.28;5127965;28;20237;-69
